Time;durP1;ratioP1;P1;durP2;ratioP2;P2;SDS_P1;SDS_P2;PMS_P1;PMS_P2;Temp;Humidity;BMP_temperature;BMP_pressure;BME280_temperature;BME280_humidity;BME280_pressure;Samples;Min_cycle;Max_cycle;Signal;HPM_P1;HPM_P2
2022/07/13 00:01:41;;;;;;;3.92;2.20;;;25.10;90.00;;;;;;5096401;28;20043;-64
2022/07/13 00:04:07;;;;;;;3.88;2.33;;;25.00;89.80;;;;;;5096451;28;20048;-64
2022/07/13 00:06:33;;;;;;;4.53;2.25;;;24.80;89.90;;;;;;5096479;28;20044;-63
2022/07/13 00:08:58;;;;;;;4.30;2.22;;;25.20;89.80;;;;;;5096979;28;20040;-64
2022/07/13 00:11:24;;;;;;;5.47;2.30;;;25.20;90.00;;;;;;5096288;28;20389;-64
2022/07/13 00:13:50;;;;;;;4.18;2.30;;;25.10;91.30;;;;;;5096657;28;20043;-65
2022/07/13 00:16:16;;;;;;;5.82;2.22;;;25.10;90.00;;;;;;5096093;28;20093;-64
2022/07/13 00:18:41;;;;;;;4.25;2.20;;;25.00;89.90;;;;;;5096537;28;20080;-64
2022/07/13 00:21:07;;;;;;;3.17;1.98;;;24.80;89.50;;;;;;5096697;28;20054;-62
2022/07/13 00:23:33;;;;;;;5.55;2.35;;;25.30;90.00;;;;;;5096120;28;20050;-64
2022/07/13 00:25:58;;;;;;;4.53;2.08;;;24.90;91.20;;;;;;5095628;28;20135;-67
2022/07/13 00:28:25;;;;;;;3.97;2.15;;;25.10;89.10;;;;;;5078611;28;20083;-65
2022/07/13 00:30:50;;;;;;;4.43;2.00;;;25.10;89.80;;;;;;5096343;28;20082;-66
2022/07/13 00:33:16;;;;;;;4.78;2.20;;;25.20;90.00;;;;;;5096615;28;20124;-64
2022/07/13 00:35:42;;;;;;;4.15;2.20;;;25.10;89.80;;;;;;5096679;28;20393;-65
2022/07/13 00:38:08;;;;;;;4.53;2.30;;;25.10;89.70;;;;;;5096260;28;20036;-63
2022/07/13 00:40:34;;;;;;;5.88;2.10;;;25.00;91.40;;;;;;5096201;28;20479;-64
2022/07/13 00:42:59;;;;;;;5.00;2.20;;;25.20;91.30;;;;;;5095700;28;20036;-64
2022/07/13 00:45:25;;;;;;;3.47;2.03;;;25.20;89.70;;;;;;5096129;28;20544;-64
2022/07/13 00:47:51;;;;;;;3.90;2.10;;;25.10;89.70;;;;;;5096030;28;20089;-64
2022/07/13 00:50:17;;;;;;;4.05;2.15;;;25.10;89.70;;;;;;5096359;28;20464;-63
2022/07/13 00:52:42;;;;;;;3.83;2.08;;;24.90;89.70;;;;;;5095606;28;20071;-63
2022/07/13 00:55:09;;;;;;;3.85;2.10;;;25.00;91.40;;;;;;5060724;28;20054;-63
2022/07/13 00:57:36;;;;;;;4.95;2.50;;;25.00;91.10;;;;;;5094775;28;20040;-63
2022/07/13 01:00:04;;;;;;;5.22;2.28;;;25.20;90.00;;;;;;5077461;28;20052;-64
2022/07/13 01:02:30;;;;;;;3.63;2.17;;;25.10;91.20;;;;;;5075905;28;20052;-64
2022/07/13 01:04:56;;;;;;;5.43;2.42;;;24.80;89.50;;;;;;5095581;28;20055;-64
2022/07/13 01:07:22;;;;;;;4.32;2.17;;;25.10;89.70;;;;;;5078031;28;20043;-64
2022/07/13 01:09:47;;;;;;;3.33;2.10;;;25.10;89.70;;;;;;5077143;28;20489;-64
2022/07/13 01:12:13;;;;;;;4.22;2.20;;;25.10;89.70;;;;;;5077423;28;20051;-62
2022/07/13 01:14:39;;;;;;;4.43;2.20;;;24.90;89.50;;;;;;5076834;28;20506;-63
2022/07/13 01:17:05;;;;;;;4.13;2.30;;;25.00;89.70;;;;;;5077400;28;20040;-63
2022/07/13 01:19:30;;;;;;;4.50;2.15;;;25.00;89.50;;;;;;5094905;28;20082;-64
2022/07/13 01:21:58;;;;;;;5.25;2.15;;;25.00;89.60;;;;;;5077644;28;20490;-64
2022/07/13 01:24:24;;;;;;;4.45;2.05;;;24.90;89.80;;;;;;5094962;28;20087;-64
2022/07/13 01:26:50;;;;;;;4.10;2.30;;;24.90;89.50;;;;;;5095172;28;20098;-64
2022/07/13 01:29:15;;;;;;;3.30;2.08;;;25.20;91.20;;;;;;5060016;28;20075;-62
2022/07/13 01:31:41;;;;;;;4.75;2.17;;;24.90;89.60;;;;;;5094711;28;20048;-62
2022/07/13 01:34:08;;;;;;;3.80;2.10;;;24.90;89.50;;;;;;5072932;28;20067;-62
2022/07/13 01:36:37;;;;;;;5.43;2.03;;;24.70;89.60;;;;;;5092674;28;20442;-63
2022/07/13 01:39:04;;;;;;;6.07;2.47;;;25.10;90.10;;;;;;5094955;28;20058;-63
2022/07/13 01:41:29;;;;;;;4.32;2.15;;;24.80;89.80;;;;;;5094413;28;20455;-70
2022/07/13 01:43:57;;;;;;;3.65;2.17;;;25.10;89.60;;;;;;5076885;28;20056;-70
2022/07/13 01:46:26;;;;;;;4.47;2.17;;;25.10;90.10;;;;;;5094426;28;20482;-70
2022/07/13 01:48:53;;;;;;;4.78;2.50;;;25.00;89.80;;;;;;5095148;28;20047;-70
2022/07/13 01:51:19;;;;;;;3.95;2.15;;;25.10;89.90;;;;;;5094082;28;20543;-71
2022/07/13 01:53:45;;;;;;;3.90;2.30;;;25.00;89.40;;;;;;5094669;28;20032;-68
2022/07/13 01:56:11;;;;;;;3.78;2.40;;;25.00;89.60;;;;;;5094247;28;20044;-69
2022/07/13 01:58:36;;;;;;;5.72;2.50;;;24.90;89.50;;;;;;5094005;28;20043;-69
2022/07/13 02:01:02;;;;;;;5.80;2.75;;;25.00;89.50;;;;;;5076506;28;20079;-70
2022/07/13 02:03:29;;;;;;;4.43;2.35;;;24.80;91.20;;;;;;5093875;28;20114;-70
2022/07/13 02:05:55;;;;;;;5.22;2.47;;;25.00;89.90;;;;;;5094229;28;20500;-71
2022/07/13 02:08:21;;;;;;;5.22;2.35;;;24.90;89.70;;;;;;5094018;28;20490;-70
2022/07/13 02:10:47;;;;;;;5.32;2.72;;;25.10;89.60;;;;;;5094768;28;20056;-70
2022/07/13 02:13:13;;;;;;;4.18;2.10;;;24.80;89.60;;;;;;5094276;28;20044;-70
2022/07/13 02:15:39;;;;;;;4.50;3.03;;;24.90;89.50;;;;;;5094392;28;20126;-71
2022/07/13 02:18:05;;;;;;;4.70;2.22;;;25.00;91.30;;;;;;5094218;28;20032;-71
2022/07/13 02:20:30;;;;;;;5.70;2.90;;;25.10;89.90;;;;;;5094510;28;20040;-71
2022/07/13 02:22:56;;;;;;;5.80;2.97;;;25.10;91.10;;;;;;5094127;28;20419;-70
2022/07/13 02:25:22;;;;;;;4.70;2.72;;;25.00;91.10;;;;;;5089746;28;20444;-70
2022/07/13 02:27:48;;;;;;;4.90;2.60;;;25.10;89.70;;;;;;5094509;28;20401;-70
2022/07/13 02:30:14;;;;;;;5.10;2.80;;;25.00;89.50;;;;;;5075582;28;20044;-71
2022/07/13 02:32:42;;;;;;;5.53;2.85;;;24.90;89.60;;;;;;5076343;28;20051;-71
2022/07/13 02:35:08;;;;;;;5.18;3.13;;;24.80;91.10;;;;;;5075096;28;20047;-71
2022/07/13 02:37:34;;;;;;;6.75;2.92;;;25.00;89.70;;;;;;5076098;28;20043;-70
2022/07/13 02:39:59;;;;;;;6.85;2.83;;;25.00;91.10;;;;;;5093518;28;20101;-71
2022/07/13 02:42:25;;;;;;;4.05;2.42;;;24.90;89.60;;;;;;5094158;28;20402;-70
2022/07/13 02:44:52;;;;;;;4.20;2.80;;;25.00;89.60;;;;;;5074538;28;20051;-71
2022/07/13 02:47:17;;;;;;;4.45;2.80;;;24.90;89.60;;;;;;5093304;28;20072;-70
2022/07/13 02:49:43;;;;;;;5.63;3.08;;;24.80;89.30;;;;;;5093255;28;20125;-71
2022/07/13 02:52:09;;;;;;;6.05;2.75;;;25.00;90.70;;;;;;5093865;28;20051;-69
2022/07/13 02:54:35;;;;;;;4.70;2.80;;;25.00;91.10;;;;;;5093372;28;20036;-70
2022/07/13 02:57:00;;;;;;;4.97;2.78;;;24.60;89.30;;;;;;5075296;28;20101;-71
2022/07/13 02:59:26;;;;;;;6.40;3.10;;;25.10;91.20;;;;;;5094217;28;20379;-68
2022/07/13 03:01:52;;;;;;;4.07;2.85;;;25.00;89.50;;;;;;5058321;28;20040;-71
2022/07/13 03:04:18;;;;;;;5.05;3.13;;;24.80;89.30;;;;;;5094059;28;20075;-71
2022/07/13 03:06:45;;;;;;;5.28;2.95;;;24.70;89.50;;;;;;5093115;28;20058;-71
2022/07/13 03:09:10;;;;;;;4.25;2.72;;;24.90;89.40;;;;;;5093530;28;20079;-70
2022/07/13 03:11:36;;;;;;;5.70;2.97;;;24.90;89.50;;;;;;5093272;28;20075;-71
2022/07/13 03:14:02;;;;;;;4.07;2.60;;;25.10;91.10;;;;;;5093645;28;20036;-70
2022/07/13 03:16:28;;;;;;;5.40;3.58;;;24.80;91.20;;;;;;5093047;28;20050;-71
2022/07/13 03:18:54;;;;;;;5.35;3.13;;;25.30;89.60;;;;;;5093352;28;20044;-71
2022/07/13 03:21:20;;;;;;;4.72;2.97;;;25.00;89.50;;;;;;5093234;28;20114;-69
2022/07/13 03:23:45;;;;;;;5.25;3.05;;;24.90;89.30;;;;;;5074557;28;20533;-70
2022/07/13 03:26:11;;;;;;;4.65;3.20;;;25.10;91.10;;;;;;5079376;28;20177;-71
2022/07/13 03:28:37;;;;;;;5.63;3.22;;;25.10;89.10;;;;;;5099547;28;20071;-71
2022/07/13 03:31:03;;;;;;;5.40;3.28;;;24.80;89.00;;;;;;5081764;28;20055;-71
2022/07/13 03:33:29;;;;;;;5.30;3.30;;;24.60;88.60;;;;;;5099397;28;20043;-71
2022/07/13 03:35:54;;;;;;;6.15;3.40;;;25.00;91.00;;;;;;5081467;28;20052;-71
2022/07/13 03:38:20;;;;;;;4.95;2.90;;;25.10;89.30;;;;;;5099544;28;20123;-72
2022/07/13 03:40:47;;;;;;;5.20;2.95;;;24.80;89.20;;;;;;5100240;28;20470;-69
2022/07/13 03:43:12;;;;;;;5.70;3.30;;;24.80;90.90;;;;;;5099003;28;20073;-70
2022/07/13 03:45:38;;;;;;;5.20;3.40;;;24.80;91.20;;;;;;5082155;28;20048;-71
2022/07/13 03:48:05;;;;;;;5.32;3.38;;;25.00;91.10;;;;;;5099435;28;22179;-71
2022/07/13 03:50:31;;;;;;;5.30;3.17;;;25.00;89.20;;;;;;5081677;28;20514;-71
2022/07/13 03:52:57;;;;;;;5.10;3.17;;;24.80;89.20;;;;;;5082119;28;20101;-69
2022/07/13 03:55:22;;;;;;;6.13;3.38;;;25.00;89.50;;;;;;5064614;28;20047;-71
2022/07/13 03:57:48;;;;;;;4.85;2.95;;;24.90;89.20;;;;;;5099848;28;20451;-70
2022/07/13 04:00:14;;;;;;;6.68;3.40;;;25.00;89.50;;;;;;5098955;28;20049;-71
2022/07/13 04:02:40;;;;;;;5.72;3.15;;;24.90;89.10;;;;;;5100009;28;20070;-71
2022/07/13 04:05:06;;;;;;;5.75;3.40;;;24.70;91.00;;;;;;5099167;28;20402;-71
2022/07/13 04:07:32;;;;;;;5.35;3.25;;;25.00;88.90;;;;;;5099709;28;20478;-70
2022/07/13 04:09:58;;;;;;;5.25;3.20;;;24.80;89.30;;;;;;5099200;28;20070;-71
2022/07/13 04:12:23;;;;;;;5.50;3.35;;;25.10;91.00;;;;;;5099955;28;20394;-71
2022/07/13 04:14:49;;;;;;;4.80;3.20;;;25.10;89.40;;;;;;5099244;28;20497;-71
2022/07/13 04:17:15;;;;;;;5.57;3.03;;;25.00;89.20;;;;;;5100306;28;20073;-71
2022/07/13 04:19:41;;;;;;;6.65;3.33;;;24.90;91.00;;;;;;5098790;28;20044;-65
2022/07/13 04:22:07;;;;;;;6.38;3.58;;;25.00;89.40;;;;;;5099386;28;20044;-70
2022/07/13 04:24:32;;;;;;;5.97;3.45;;;24.90;89.20;;;;;;5100142;28;20044;-71
2022/07/13 04:26:58;;;;;;;7.38;3.30;;;25.00;89.00;;;;;;5081214;28;20055;-70
2022/07/13 04:29:24;;;;;;;6.28;3.30;;;24.80;89.20;;;;;;5099246;28;20097;-71
2022/07/13 04:31:50;;;;;;;5.28;3.30;;;25.00;89.30;;;;;;5099348;28;20090;-71
2022/07/13 04:34:17;;;;;;;5.18;3.10;;;24.90;89.10;;;;;;5098792;28;20051;-68
2022/07/13 04:36:43;;;;;;;5.72;3.45;;;24.90;90.90;;;;;;5095677;28;20040;-70
2022/07/13 04:39:09;;;;;;;6.82;4.07;;;25.10;91.10;;;;;;5095957;28;20048;-71
2022/07/13 04:41:35;;;;;;;5.30;3.35;;;25.00;89.20;;;;;;5096173;28;20039;-70
2022/07/13 04:44:00;;;;;;;5.47;3.40;;;25.10;89.00;;;;;;5078076;28;20044;-71
2022/07/13 04:46:27;;;;;;;6.88;3.58;;;25.10;89.20;;;;;;5096060;28;20079;-67
2022/07/13 04:48:53;;;;;;;5.70;3.67;;;25.10;89.00;;;;;;5096224;28;20036;-69
2022/07/13 04:51:19;;;;;;;5.38;3.20;;;;;;;;;;5095571;28;20462;-69
2022/07/13 04:53:45;;;;;;;5.53;3.30;;;24.90;87.30;;;;;;5095596;28;20100;-71
2022/07/13 04:56:12;;;;;;;5.45;3.45;;;24.90;90.90;;;;;;5095345;28;20123;-71
2022/07/13 04:58:38;;;;;;;5.72;3.40;;;24.90;88.00;;;;;;5094688;28;20470;-66
2022/07/13 05:01:06;;;;;;;5.35;3.30;;;25.00;89.00;;;;;;5096198;28;20131;-68
2022/07/13 05:03:32;;;;;;;5.53;3.58;;;24.80;89.00;;;;;;5094521;28;20048;-71
2022/07/13 05:05:58;;;;;;;6.40;3.35;;;25.00;91.10;;;;;;5096056;28;20044;-71
2022/07/13 05:08:25;;;;;;;5.30;3.45;;;25.00;89.10;;;;;;5075316;28;20098;-71
2022/07/13 05:10:52;;;;;;;6.13;3.72;;;24.90;89.00;;;;;;5077871;28;20048;-71
2022/07/13 05:13:17;;;;;;;7.38;3.70;;;25.20;89.00;;;;;;5094474;28;20137;-71
2022/07/13 05:15:44;;;;;;;5.20;3.47;;;25.10;88.80;;;;;;5095428;28;20090;-71
2022/07/13 05:18:10;;;;;;;5.32;3.58;;;24.90;88.70;;;;;;5095308;28;20054;-71
2022/07/13 05:20:36;;;;;;;6.45;3.72;;;25.20;89.20;;;;;;5095226;28;20048;-69
2022/07/13 05:23:02;;;;;;;5.20;3.30;;;25.00;88.80;;;;;;5095756;28;20044;-71
2022/07/13 05:25:28;;;;;;;5.28;3.40;;;25.10;89.50;;;;;;5094779;28;20070;-70
2022/07/13 05:27:53;;;;;;;5.32;3.40;;;24.80;88.60;;;;;;5095657;28;20439;-70
2022/07/13 05:30:19;;;;;;;5.57;3.42;;;25.20;88.80;;;;;;5076269;28;20052;-71
2022/07/13 05:32:45;;;;;;;6.20;3.42;;;25.00;88.80;;;;;;5095115;28;20044;-71
2022/07/13 05:35:11;;;;;;;5.38;3.25;;;24.90;88.50;;;;;;5095103;28;20035;-71
2022/07/13 05:37:37;;;;;;;5.03;3.13;;;25.10;88.80;;;;;;5095466;28;20477;-70
2022/07/13 05:40:03;;;;;;;6.25;3.40;;;25.10;88.70;;;;;;5094308;28;20464;-70
2022/07/13 05:42:30;;;;;;;5.78;3.38;;;25.10;88.60;;;;;;5095670;28;20048;-71
2022/07/13 05:44:56;;;;;;;6.63;3.38;;;25.10;90.80;;;;;;5094875;28;20133;-70
2022/07/13 05:47:22;;;;;;;4.85;3.15;;;25.10;88.70;;;;;;5075165;28;20473;-71
2022/07/13 05:49:47;;;;;;;5.20;3.38;;;25.10;88.60;;;;;;5094557;28;20109;-70
2022/07/13 05:52:13;;;;;;;5.15;3.35;;;25.10;88.60;;;;;;5092881;28;20139;-70
2022/07/13 05:54:39;;;;;;;5.30;3.33;;;25.10;88.60;;;;;;5094797;28;20067;-71
2022/07/13 05:57:04;;;;;;;5.15;3.40;;;25.10;88.70;;;;;;5095097;28;20086;-71
2022/07/13 05:59:32;;;;;;;5.38;3.35;;;25.10;88.50;;;;;;5095270;28;20481;-71
2022/07/13 06:02:01;;;;;;;5.07;3.50;;;25.30;88.90;;;;;;5075862;28;20091;-71
2022/07/13 06:04:27;;;;;;;5.55;3.40;;;25.10;90.60;;;;;;5094660;28;20044;-70
2022/07/13 06:06:53;;;;;;;5.40;3.10;;;25.20;88.50;;;;;;5094432;28;20097;-70
2022/07/13 06:09:18;;;;;;;4.97;3.20;;;25.10;88.50;;;;;;5094874;28;20036;-70
2022/07/13 06:11:46;;;;;;;5.68;3.10;;;25.30;88.40;;;;;;5075677;28;20036;-70
2022/07/13 06:14:13;;;;;;;4.68;3.05;;;25.20;88.40;;;;;;5094769;28;20047;-70
2022/07/13 06:16:39;;;;;;;6.07;3.47;;;25.30;88.70;;;;;;5076355;28;20036;-70
2022/07/13 06:19:05;;;;;;;5.18;3.10;;;25.20;87.80;;;;;;5076358;28;20402;-69
2022/07/13 06:21:31;;;;;;;5.30;3.00;;;25.10;90.60;;;;;;5093425;28;20050;-69
2022/07/13 06:23:57;;;;;;;5.60;3.70;;;25.20;88.20;;;;;;5093174;28;20150;-70
2022/07/13 06:26:22;;;;;;;5.70;3.35;;;25.20;88.40;;;;;;5094100;28;20498;-70
2022/07/13 06:28:48;;;;;;;5.13;2.85;;;25.30;88.20;;;;;;5094166;28;20044;-70
2022/07/13 06:31:14;;;;;;;5.45;3.33;;;25.50;88.60;;;;;;5094038;28;20115;-70
2022/07/13 06:33:41;;;;;;;5.10;3.75;;;;;;;;;;5093374;28;20497;-63
2022/07/13 06:36:08;;;;;;;5.68;3.50;;;25.10;86.50;;;;;;5076018;28;20101;-69
2022/07/13 06:38:34;;;;;;;4.93;3.00;;;25.40;88.70;;;;;;5076606;28;20052;-63
2022/07/13 06:41:00;;;;;;;5.63;3.28;;;25.10;88.20;;;;;;5076302;28;20040;-63
2022/07/13 06:43:26;;;;;;;5.07;3.40;;;25.40;88.40;;;;;;5093024;28;20040;-68
2022/07/13 06:45:51;;;;;;;4.85;3.00;;;25.30;88.40;;;;;;5094159;28;20048;-62
2022/07/13 06:48:17;;;;;;;6.07;3.45;;;25.40;88.40;;;;;;5094196;28;20036;-63
2022/07/13 06:50:43;;;;;;;5.88;3.88;;;25.20;88.20;;;;;;5093838;28;20044;-65
2022/07/13 06:53:09;;;;;;;5.43;3.85;;;25.20;88.20;;;;;;5093679;28;20036;-69
2022/07/13 06:55:35;;;;;;;5.88;3.50;;;25.30;88.10;;;;;;5091357;28;20501;-71
2022/07/13 06:58:00;;;;;;;7.10;3.60;;;25.20;88.00;;;;;;5093715;28;20036;-71
2022/07/13 07:00:26;;;;;;;6.35;3.72;;;25.50;88.30;;;;;;5092909;28;20051;-70
2022/07/13 07:02:52;;;;;;;6.05;3.70;;;25.40;90.50;;;;;;5092743;28;20040;-70
2022/07/13 07:05:18;;;;;;;5.25;3.47;;;25.30;88.10;;;;;;5093070;28;20165;-71
2022/07/13 07:07:44;;;;;;;6.38;3.75;;;25.30;88.20;;;;;;5093545;28;20036;-70
2022/07/13 07:10:10;;;;;;;6.07;3.65;;;25.50;88.30;;;;;;5093518;28;20081;-71
2022/07/13 07:12:38;;;;;;;5.05;3.50;;;25.60;90.70;;;;;;5075313;28;20483;-69
2022/07/13 07:15:06;;;;;;;6.05;3.60;;;25.40;87.00;;;;;;5093008;28;20137;-70
2022/07/13 07:17:32;;;;;;;6.43;3.72;;;25.60;87.60;;;;;;5092905;28;20050;-70
2022/07/13 07:19:59;;;;;;;6.05;3.53;;;25.70;87.80;;;;;;5075230;28;20045;-66
2022/07/13 07:22:25;;;;;;;7.35;3.90;;;25.60;88.00;;;;;;5093425;28;20032;-68
2022/07/13 07:24:51;;;;;;;5.55;3.88;;;25.80;87.80;;;;;;5092920;28;20063;-69
2022/07/13 07:27:17;;;;;;;6.82;3.70;;;26.00;87.60;;;;;;5086298;28;20072;-71
2022/07/13 07:29:43;;;;;;;5.55;3.75;;;26.20;87.60;;;;;;5091502;28;20048;-68
2022/07/13 07:32:09;;;;;;;6.50;3.63;;;26.00;87.10;;;;;;5058780;28;20098;-71
2022/07/13 07:34:34;;;;;;;5.03;3.40;;;26.00;86.90;;;;;;5075155;28;20047;-72
2022/07/13 07:37:00;;;;;;;6.15;3.70;;;26.30;86.90;;;;;;5021702;28;20155;-69
2022/07/13 07:39:26;;;;;;;4.88;3.55;;;26.20;86.50;;;;;;5038130;28;20052;-69
2022/07/13 07:41:53;;;;;;;5.20;3.75;;;26.30;86.60;;;;;;5071692;28;20479;-70
2022/07/13 07:44:19;;;;;;;6.60;3.97;;;26.40;86.00;;;;;;5073069;28;20044;-72
2022/07/13 07:46:45;;;;;;;5.10;3.50;;;26.60;89.10;;;;;;5084326;28;20386;-73
2022/07/13 07:49:10;;;;;;;7.55;4.25;;;26.50;85.90;;;;;;5092889;28;20067;-63
2022/07/13 07:51:37;;;;;;;5.32;3.70;;;26.60;85.80;;;;;;5091909;28;20047;-71
2022/07/13 07:54:02;;;;;;;7.70;4.60;;;26.70;85.80;;;;;;5092928;28;20040;-61
2022/07/13 07:56:28;;;;;;;7.43;3.90;;;26.70;85.70;;;;;;5092889;28;20123;-68
2022/07/13 07:58:54;;;;;;;7.05;4.63;;;26.70;85.60;;;;;;5092119;28;20138;-62
2022/07/13 08:01:20;;;;;;;5.97;4.15;;;26.70;85.70;;;;;;5091690;28;20501;-68
2022/07/13 08:03:45;;;;;;;7.80;4.47;;;26.90;85.60;;;;;;5092981;28;20481;-63
2022/07/13 08:06:12;;;;;;;7.32;4.72;;;27.00;85.60;;;;;;5093206;28;20048;-62
2022/07/13 08:08:38;;;;;;;7.30;4.55;;;27.20;85.60;;;;;;5091053;28;20036;-63
2022/07/13 08:11:04;;;;;;;6.97;4.22;;;27.20;85.60;;;;;;5091156;28;20094;-62
2022/07/13 08:13:30;;;;;;;8.18;4.65;;;27.20;84.90;;;;;;5078949;28;20408;-62
2022/07/13 08:15:56;;;;;;;7.65;4.82;;;27.40;85.30;;;;;;5090918;28;20842;-62
2022/07/13 08:18:22;;;;;;;7.43;4.65;;;27.20;84.80;;;;;;5077340;28;20040;-62
2022/07/13 08:20:48;;;;;;;8.20;5.43;;;27.60;85.00;;;;;;5096504;28;20051;-63
2022/07/13 08:25:58;;;;;;;11.13;6.25;;;27.60;83.70;;;;;;5096481;28;20062;-71
2022/07/13 08:28:24;;;;;;;11.18;5.30;;;27.70;84.30;;;;;;5095626;28;20040;-69
2022/07/13 08:30:50;;;;;;;9.93;5.72;;;28.00;84.70;;;;;;5096408;28;20096;-73
2022/07/13 08:33:15;;;;;;;10.88;5.82;;;27.90;84.20;;;;;;5096508;28;20115;-73
2022/07/13 08:38:38;;;;;;;12.15;6.28;;;27.60;82.80;;;;;;5095647;28;20090;-71
2022/07/13 08:41:06;;;;;;;11.57;6.03;;;27.90;83.00;;;;;;5095724;28;20383;-61
2022/07/13 08:43:34;;;;;;;13.02;5.78;;;27.80;83.90;;;;;;5095406;28;20041;-63
2022/07/13 08:46:03;;;;;;;13.18;5.28;;;28.00;83.90;;;;;;5077391;28;20110;-61
2022/07/13 08:48:29;;;;;;;7.35;5.28;;;27.90;84.00;;;;;;5095693;28;20044;-69
2022/07/13 08:50:55;;;;;;;13.20;6.05;;;28.20;83.90;;;;;;5094234;28;20116;-61
2022/07/13 08:53:21;;;;;;;8.65;5.28;;;28.10;83.60;;;;;;5094000;28;20096;-72
2022/07/13 08:55:47;;;;;;;11.75;5.50;;;28.00;83.80;;;;;;5091721;28;20449;-65
2022/07/13 08:58:14;;;;;;;9.07;5.40;;;28.20;83.80;;;;;;5086096;28;20033;-68
2022/07/13 09:00:41;;;;;;;8.50;5.43;;;28.30;83.60;;;;;;5057949;28;20052;-65
2022/07/13 09:03:06;;;;;;;12.13;5.07;;;28.30;83.40;;;;;;5073848;28;20401;-66
2022/07/13 09:05:32;;;;;;;8.80;4.93;;;28.20;83.40;;;;;;5093664;28;20032;-66
2022/07/13 09:08:05;;;;;;;7.20;4.90;;;28.20;83.20;;;;;;5059590;28;20038;-69
2022/07/13 09:10:32;;;;;;;9.73;5.15;;;28.40;83.60;;;;;;5095014;28;20229;-65
2022/07/13 09:12:58;;;;;;;8.77;4.70;;;28.20;83.00;;;;;;5085459;28;20048;-62
2022/07/13 09:15:27;;;;;;;8.60;4.47;;;28.50;83.50;;;;;;5069874;28;20043;-62
2022/07/13 09:17:56;;;;;;;8.27;4.72;;;28.30;82.80;;;;;;5080323;28;20051;-64
2022/07/13 09:20:25;;;;;;;11.43;4.60;;;28.30;82.10;;;;;;5077170;28;20359;-66
2022/07/13 09:22:55;;;;;;;12.63;5.18;;;28.40;82.70;;;;;;5094812;28;20070;-69
2022/07/13 09:25:37;;;;;;;9.98;4.53;;;28.20;83.20;;;;;;5094792;28;20040;-70
2022/07/13 09:28:06;;;;;;;7.72;4.20;;;28.50;83.40;;;;;;5094275;28;20051;-70
2022/07/13 09:30:33;;;;;;;10.10;4.30;;;28.40;83.20;;;;;;5095065;28;20044;-66
2022/07/13 09:32:59;;;;;;;8.65;4.15;;;28.50;83.00;;;;;;5095288;28;20044;-68
2022/07/13 09:35:44;;;;;;;6.75;4.00;;;28.30;82.80;;;;;;5094867;28;20047;-70
2022/07/13 09:38:33;;;;;;;8.32;4.35;;;28.30;82.50;;;;;;5094167;28;20052;-70
2022/07/13 09:41:17;;;;;;;8.38;4.13;;;28.40;81.30;;;;;;5095104;28;20044;-69
2022/07/13 09:46:58;;;;;;;7.03;3.97;;;28.40;81.40;;;;;;5094231;28;20054;-68
2022/07/13 09:49:39;;;;;;;6.50;4.00;;;28.40;81.30;;;;;;5091031;28;20052;-70
2022/07/13 09:52:08;;;;;;;8.48;3.88;;;28.20;81.10;;;;;;5076863;28;20055;-69
2022/07/13 09:54:42;;;;;;;6.82;3.75;;;28.20;81.00;;;;;;5094611;28;20052;-70
2022/07/13 09:57:14;;;;;;;11.73;3.83;;;28.30;82.30;;;;;;5076239;28;20097;-69
2022/07/13 09:59:43;;;;;;;6.60;4.15;;;28.20;82.20;;;;;;5071831;28;20409;-68
2022/07/13 10:02:09;;;;;;;6.88;4.22;;;28.20;82.40;;;;;;5072662;28;20436;-67
2022/07/13 10:04:38;;;;;;;5.93;3.65;;;28.20;82.00;;;;;;5094125;28;20083;-69
2022/07/13 10:07:04;;;;;;;8.00;3.90;;;28.40;81.70;;;;;;5094729;28;20036;-71
2022/07/13 10:09:31;;;;;;;6.40;3.63;;;28.30;82.30;;;;;;5076655;28;20044;-70
2022/07/13 10:12:00;;;;;;;6.35;3.40;;;28.10;82.10;;;;;;5056933;28;20052;-64
2022/07/13 10:14:26;;;;;;;7.95;3.92;;;28.40;82.20;;;;;;5092790;28;20047;-70
2022/07/13 10:16:58;;;;;;;7.85;4.10;;;28.40;82.20;;;;;;5088231;28;20036;-64
2022/07/13 10:19:24;;;;;;;8.48;4.30;;;28.50;82.50;;;;;;5075833;28;20088;-64
2022/07/13 10:22:02;;;;;;;9.55;4.35;;;28.30;82.10;;;;;;5076086;28;20090;-63
2022/07/13 10:24:28;;;;;;;7.43;3.97;;;28.30;82.30;;;;;;5093486;28;20398;-69
2022/07/13 10:27:26;;;;;;;7.18;3.70;;;28.20;82.20;;;;;;5075323;28;20056;-71
2022/07/13 10:30:03;;;;;;;6.05;4.03;;;28.40;82.50;;;;;;5093724;28;20044;-69
2022/07/13 10:32:30;;;;;;;9.18;4.32;;;28.50;82.60;;;;;;5076518;28;20051;-66
2022/07/13 10:35:12;;;;;;;8.30;4.20;;;28.30;82.20;;;;;;5092405;28;20048;-65
2022/07/13 10:37:57;;;;;;;8.10;4.07;;;28.10;81.00;;;;;;5092413;28;20047;-66
2022/07/13 10:40:23;;;;;;;8.88;4.72;;;28.50;82.00;;;;;;5094169;28;20090;-66
2022/07/13 10:42:57;;;;;;;7.40;4.65;;;28.10;81.80;;;;;;5071061;28;20169;-66
2022/07/13 10:45:34;;;;;;;8.45;4.55;;;28.30;82.30;;;;;;5075741;28;21421;-65
2022/07/13 10:48:02;;;;;;;10.80;4.22;;;28.40;81.20;;;;;;5091565;28;20051;-65
2022/07/13 10:50:34;;;;;;;9.27;4.68;;;28.10;81.90;;;;;;5093542;28;20127;-66
2022/07/13 10:53:00;;;;;;;7.40;4.00;;;28.20;81.50;;;;;;5076929;28;20055;-63
2022/07/13 10:55:30;;;;;;;10.02;4.93;;;28.10;82.00;;;;;;5094067;28;20043;-69
2022/07/13 10:57:56;;;;;;;11.63;4.22;;;28.20;82.10;;;;;;5092388;28;20044;-63
2022/07/13 11:00:43;;;;;;;9.77;4.05;;;28.10;81.70;;;;;;5093031;28;20050;-64
2022/07/13 11:03:38;;;;;;;9.02;4.10;;;28.10;80.50;;;;;;5093511;28;20044;-70
2022/07/13 11:06:06;;;;;;;7.90;3.78;;;28.40;82.10;;;;;;5092372;28;20111;-69
2022/07/13 11:08:31;;;;;;;5.97;3.67;;;28.40;81.90;;;;;;5093292;28;20040;-69
2022/07/13 11:11:17;;;;;;;13.80;3.70;;;28.30;81.40;;;;;;5090551;28;20032;-70
2022/07/13 11:13:44;;;;;;;6.65;3.63;;;28.40;81.50;;;;;;5092535;28;20052;-64
2022/07/13 11:16:10;;;;;;;7.93;3.47;;;28.20;81.30;;;;;;5058745;28;20048;-64
2022/07/13 11:18:37;;;;;;;6.25;3.58;;;28.40;81.50;;;;;;5093244;28;20048;-66
2022/07/13 11:21:09;;;;;;;10.60;4.15;;;28.20;81.30;;;;;;5092859;28;20051;-65
2022/07/13 11:26:48;;;;;;;6.78;3.70;;;28.20;80.10;;;;;;5093007;28;20048;-67
2022/07/13 11:29:17;;;;;;;8.77;3.92;;;28.30;81.20;;;;;;5093440;28;20058;-66
2022/07/13 11:31:43;;;;;;;5.35;3.28;;;28.10;80.90;;;;;;5093236;28;20460;-66
2022/07/13 11:34:09;;;;;;;6.43;3.38;;;28.40;80.70;;;;;;5092453;28;20040;-65
2022/07/13 11:36:35;;;;;;;6.15;3.22;;;28.10;80.70;;;;;;5074519;28;20048;-65
2022/07/13 11:39:01;;;;;;;5.40;3.25;;;28.30;80.60;;;;;;5075352;28;20130;-66
2022/07/13 11:41:27;;;;;;;6.88;3.40;;;28.30;80.80;;;;;;5092659;28;20118;-65
2022/07/13 11:43:53;;;;;;;6.60;3.38;;;27.90;80.20;;;;;;5093398;28;20040;-65
2022/07/13 11:46:23;;;;;;;7.15;3.60;;;28.20;80.60;;;;;;5093044;28;20378;-65
2022/07/13 11:49:09;;;;;;;5.80;3.10;;;28.10;80.60;;;;;;5078988;28;20260;-62
2022/07/13 11:51:35;;;;;;;7.20;3.25;;;28.00;80.10;;;;;;5095429;28;20449;-64
2022/07/13 11:54:12;;;;;;;8.18;3.22;;;28.10;80.00;;;;;;5090622;28;20052;-65
2022/07/13 11:56:48;;;;;;;6.68;3.05;;;28.20;80.80;;;;;;5058800;28;20044;-65
2022/07/13 11:59:15;;;;;;;8.90;3.60;;;27.90;80.60;;;;;;5087616;28;20047;-66
2022/07/13 12:01:50;;;;;;;8.30;3.50;;;28.20;81.10;;;;;;5078883;28;20083;-67
2022/07/13 12:04:26;;;;;;;7.65;3.42;;;28.30;80.40;;;;;;5094638;28;20044;-67
2022/07/13 12:07:08;;;;;;;8.55;3.00;;;28.30;80.70;;;;;;5097277;28;20052;-66
2022/07/13 12:09:34;;;;;;;9.15;3.45;;;28.20;80.70;;;;;;5078770;28;20119;-65
2022/07/13 12:12:00;;;;;;;6.55;3.25;;;28.20;80.30;;;;;;5078646;28;20147;-66
2022/07/13 12:14:26;;;;;;;5.85;2.70;;;28.20;80.30;;;;;;5077736;28;20048;-65
2022/07/13 12:16:51;;;;;;;10.02;3.30;;;28.20;80.60;;;;;;5093743;28;20048;-65
2022/07/13 12:19:19;;;;;;;5.65;3.22;;;28.10;80.40;;;;;;5095265;28;20080;-65
2022/07/13 12:21:57;;;;;;;6.88;3.40;;;28.30;80.90;;;;;;5078604;28;20047;-65
2022/07/13 12:24:23;;;;;;;8.98;3.20;;;28.20;81.20;;;;;;5077940;28;20048;-66
2022/07/13 12:26:52;;;;;;;10.38;3.38;;;28.00;80.70;;;;;;5095780;28;20051;-65
2022/07/13 12:29:33;;;;;;;6.35;3.05;;;28.30;81.10;;;;;;5061781;28;20052;-66
2022/07/13 12:32:00;;;;;;;6.45;2.90;;;28.20;81.50;;;;;;5061481;28;20101;-63
2022/07/13 12:34:25;;;;;;;6.93;3.30;;;28.10;81.10;;;;;;5096406;28;20055;-63
2022/07/13 12:36:51;;;;;;;6.43;3.00;;;28.00;80.90;;;;;;5078181;28;20047;-64
2022/07/13 12:39:40;;;;;;;6.47;3.30;;;28.30;81.20;;;;;;5095620;28;20516;-67
2022/07/13 12:42:09;;;;;;;6.82;3.33;;;28.20;81.30;;;;;;5096389;28;20075;-67
2022/07/13 12:44:35;;;;;;;10.18;3.17;;;28.10;81.50;;;;;;5056223;28;20035;-64
2022/07/13 12:47:01;;;;;;;6.57;3.55;;;28.20;81.40;;;;;;5094780;28;20473;-63
2022/07/13 12:49:39;;;;;;;8.38;3.10;;;28.10;81.30;;;;;;5078483;28;20047;-63
2022/07/13 12:52:09;;;;;;;7.40;3.50;;;28.20;81.90;;;;;;5095958;28;20044;-65
2022/07/13 12:54:47;;;;;;;7.15;3.45;;;28.10;80.10;;;;;;5096184;28;20173;-65
2022/07/13 12:57:20;;;;;;;6.05;3.47;;;27.80;80.30;;;;;;5095293;28;20486;-65
2022/07/13 13:00:07;;;;;;;5.75;2.95;;;28.00;82.00;;;;;;5075319;28;20051;-67
2022/07/13 13:02:33;;;;;;;8.20;3.33;;;28.00;80.70;;;;;;5075374;28;20044;-67